createdAt,value
2018-04-06T00:01:01.482Z,49.13
2018-04-06T00:03:30.314Z,50.00
2018-04-06T00:05:59.600Z,49.03
2018-04-06T00:08:28.455Z,50.77
2018-04-06T00:10:57.964Z,51.13
2018-04-06T00:13:26.786Z,43.42
2018-04-06T00:15:55.558Z,40.60
2018-04-06T00:18:24.392Z,41.83
2018-04-06T00:20:53.918Z,43.37
2018-04-06T00:23:22.731Z,43.43
2018-04-06T00:25:51.565Z,43.47
2018-04-06T00:28:20.589Z,45.65
2018-04-06T00:30:49.372Z,44.92
2018-04-06T00:33:18.597Z,46.40
2018-04-06T00:35:47.490Z,50.93
2018-04-06T00:38:16.287Z,53.33
2018-04-06T00:40:45.329Z,53.67
2018-04-06T00:43:14.082Z,53.63
2018-04-06T00:45:42.939Z,53.22
2018-04-06T00:48:12.591Z,50.92
2018-04-06T00:50:42.356Z,49.13
2018-04-06T00:53:32.725Z,47.60
2018-04-06T00:56:01.550Z,43.08
2018-04-06T00:58:30.299Z,42.90
2018-04-06T01:00:59.952Z,42.15
2018-04-06T01:03:28.792Z,41.75
2018-04-06T01:05:57.555Z,40.38
2018-04-06T01:08:27.107Z,40.12
2018-04-06T01:10:56.265Z,37.22
2018-04-06T01:13:25.021Z,38.58
2018-04-06T01:15:53.838Z,37.78
2018-04-06T01:18:22.583Z,38.55
2018-04-06T01:20:51.940Z,37.45
2018-04-06T01:23:20.659Z,38.33
2018-04-06T01:25:49.578Z,38.73
2018-04-06T01:28:18.243Z,38.75
2018-04-06T01:30:47.131Z,42.00
2018-04-06T01:33:15.884Z,42.35
2018-04-06T01:35:45.551Z,39.42
2018-04-06T01:38:15.418Z,39.67
2018-04-06T01:40:44.254Z,42.50
2018-04-06T01:43:13.010Z,39.42
2018-04-06T01:45:41.867Z,37.92
2018-04-06T01:48:10.589Z,36.90
2018-04-06T01:50:40.146Z,38.13
2018-04-06T01:53:08.914Z,39.10
2018-04-06T01:55:38.598Z,39.60
2018-04-06T01:58:07.366Z,38.03
2018-04-06T02:00:36.453Z,36.60
2018-04-06T02:03:05.426Z,36.05
2018-04-06T02:05:34.375Z,32.78
2018-04-06T02:08:03.162Z,33.42
2018-04-06T02:10:32.192Z,33.85
2018-04-06T02:13:00.928Z,30.73
2018-04-06T02:15:29.647Z,30.15
2018-04-06T02:17:58.483Z,31.45
2018-04-06T02:20:27.451Z,32.65
2018-04-06T02:22:56.342Z,34.03
2018-04-06T02:25:25.127Z,33.28
2018-04-06T02:27:53.936Z,32.95
2018-04-06T02:30:23.963Z,32.95
2018-04-06T02:32:52.836Z,36.45
2018-04-06T02:35:22.367Z,37.45
2018-04-06T02:37:51.294Z,37.47
2018-04-06T02:40:20.856Z,39.22
2018-04-06T02:42:49.684Z,39.53
2018-04-06T02:45:18.435Z,44.58
2018-04-06T02:47:47.222Z,43.28
2018-04-06T02:50:16.752Z,45.90
2018-04-06T02:52:45.723Z,44.60
2018-04-06T02:55:15.255Z,45.45
2018-04-06T02:57:44.119Z,45.47
2018-04-06T03:00:13.642Z,45.25
2018-04-06T03:02:42.547Z,47.62
2018-04-06T03:05:11.241Z,45.40
2018-04-06T03:07:40.086Z,48.95
2018-04-06T03:10:09.562Z,50.53
2018-04-06T03:12:38.568Z,49.58
2018-04-06T03:15:07.343Z,52.83
2018-04-06T03:17:36.237Z,53.92
2018-04-06T03:20:05.260Z,54.97
2018-04-06T03:22:35.088Z,53.15
2018-04-06T03:25:04.076Z,54.58
2018-04-06T03:27:33.124Z,54.80
2018-04-06T03:30:01.822Z,54.70
2018-04-06T03:32:30.605Z,51.92
2018-04-06T03:34:59.884Z,51.97
2018-04-06T03:37:28.602Z,48.95
2018-04-06T03:39:57.324Z,50.47
2018-04-06T03:42:26.855Z,57.00
2018-04-06T03:44:55.860Z,57.25
2018-04-06T03:47:25.081Z,57.53
2018-04-06T03:49:54.638Z,59.22
2018-04-06T03:52:23.464Z,59.25
2018-04-06T03:54:53.035Z,59.58
2018-04-06T03:57:21.891Z,57.35
2018-04-06T03:59:50.655Z,58.38
2018-04-06T04:02:19.413Z,58.90
2018-04-06T04:04:48.960Z,57.20
2018-04-06T04:07:18.619Z,57.28
2018-04-06T04:09:47.403Z,57.62
2018-04-06T04:12:16.262Z,56.63
2018-04-06T04:14:45.221Z,52.38
2018-04-06T04:17:14.049Z,44.40
2018-04-06T04:19:42.905Z,45.95
2018-04-06T04:22:11.718Z,48.08
2018-04-06T04:24:41.472Z,54.78
2018-04-06T04:27:11.020Z,58.13
2018-04-06T04:29:40.537Z,57.62
2018-04-06T04:32:09.351Z,64.43
2018-04-06T04:34:38.174Z,63.47
2018-04-06T04:37:07.037Z,103.57
2018-04-06T04:39:35.926Z,88.30
2018-04-06T04:42:04.895Z,82.60
2018-04-06T04:44:33.658Z,69.20
2018-04-06T04:47:02.618Z,63.77
2018-04-06T04:49:31.679Z,63.40
2018-04-06T04:52:00.415Z,61.27
2018-04-06T04:54:29.292Z,60.47
2018-04-06T04:56:58.085Z,56.77
2018-04-06T04:59:26.962Z,49.87
2018-04-06T05:01:55.776Z,47.93
2018-04-06T05:04:25.428Z,41.10
2018-04-06T05:06:54.232Z,38.87
2018-04-06T05:09:23.866Z,43.13
2018-04-06T05:11:52.732Z,41.13
2018-04-06T05:14:21.821Z,38.30
2018-04-06T05:16:51.380Z,33.37
2018-04-06T05:19:21.343Z,29.63
2018-04-06T05:21:50.174Z,28.57
2018-04-06T05:24:18.979Z,30.20
2018-04-06T05:26:48.567Z,27.57
2018-04-06T05:29:17.633Z,24.47
2018-04-06T05:31:46.464Z,24.27
2018-04-06T05:34:16.716Z,24.37
2018-04-06T05:36:46.294Z,21.33
2018-04-06T05:39:15.163Z,21.43
2018-04-06T05:41:43.960Z,18.60
2018-04-06T05:44:12.691Z,17.50
2018-04-06T05:46:43.005Z,17.10
2018-04-06T05:49:11.827Z,15.67
2018-04-06T05:51:40.776Z,15.43
2018-04-06T05:54:09.695Z,14.30
2018-04-06T05:56:38.662Z,15.23
2018-04-06T05:59:07.472Z,14.20
2018-04-06T06:01:36.302Z,12.73
2018-04-06T06:04:05.239Z,12.93
2018-04-06T06:06:34.036Z,12.13
2018-04-06T06:09:03.754Z,11.20
2018-04-06T06:11:33.329Z,10.93
2018-04-06T06:14:02.159Z,11.63
2018-04-06T06:16:30.956Z,10.57
2018-04-06T06:18:59.835Z,10.33
2018-04-06T06:21:28.662Z,10.43
2018-04-06T06:23:57.492Z,12.03
2018-04-06T06:26:26.175Z,12.27
2018-04-06T06:28:55.940Z,10.10
2018-04-06T06:31:25.100Z,10.87
2018-04-06T06:33:53.897Z,10.93
2018-04-06T06:36:23.641Z,11.20
2018-04-06T06:38:52.691Z,10.73
2018-04-06T06:41:22.238Z,9.77
2018-04-06T06:43:51.020Z,10.93
2018-04-06T06:46:19.924Z,10.00
2018-04-06T06:48:48.738Z,8.87
2018-04-06T06:51:17.798Z,12.03
2018-04-06T06:53:46.629Z,8.00
2018-04-06T06:56:16.244Z,11.37
2018-04-06T06:58:45.048Z,13.83
2018-04-06T07:01:13.913Z,12.90
2018-04-06T07:03:42.667Z,9.63
2018-04-06T07:06:11.416Z,7.40
2018-04-06T07:08:40.967Z,7.43
2018-04-06T07:11:09.848Z,8.73
2018-04-06T07:13:38.855Z,7.80
2018-04-06T07:16:07.706Z,8.47
2018-04-06T07:18:36.510Z,6.73
2018-04-06T07:21:12.191Z,8.20
2018-04-06T07:23:41.126Z,9.50
2018-04-06T07:26:10.758Z,7.67
2018-04-06T07:28:39.527Z,9.43
2018-04-06T07:31:08.300Z,7.63
2018-04-06T07:33:37.990Z,6.90
2018-04-06T07:36:07.879Z,5.23
2018-04-06T07:38:36.571Z,6.63
2018-04-06T07:41:05.372Z,5.57
2018-04-06T07:43:34.466Z,5.60
2018-04-06T07:46:04.532Z,8.70
2018-04-06T07:48:34.102Z,5.37
2018-04-06T07:51:03.616Z,8.27
2018-04-06T07:53:32.688Z,8.27
2018-04-06T07:56:01.452Z,7.90
2018-04-06T07:58:30.250Z,6.87
2018-04-06T08:00:59.088Z,7.63
2018-04-06T08:03:28.644Z,8.10
2018-04-06T08:05:57.846Z,5.40
2018-04-06T08:08:26.591Z,8.17
2018-04-06T08:10:55.475Z,7.57
2018-04-06T08:13:24.412Z,8.63
2018-04-06T08:15:54.075Z,6.40
2018-04-06T08:18:22.910Z,10.63
2018-04-06T08:20:52.505Z,12.03
2018-04-06T08:23:21.334Z,6.60
2018-04-06T08:25:50.201Z,6.33
2018-04-06T08:28:18.934Z,5.30
2018-04-06T08:30:48.472Z,5.43
2018-04-06T08:33:17.238Z,5.40
2018-04-06T08:35:46.901Z,5.90
2018-04-06T08:38:15.726Z,5.67
2018-04-06T08:40:44.813Z,5.40
2018-04-06T08:43:13.608Z,7.07
2018-04-06T08:45:42.583Z,10.40
2018-04-06T08:48:11.443Z,11.87
2018-04-06T08:50:40.263Z,8.37
2018-04-06T08:53:09.071Z,9.73
2018-04-06T08:55:37.875Z,12.93
2018-04-06T08:58:06.702Z,10.40
2018-04-06T09:00:35.413Z,9.30
2018-04-06T09:03:04.167Z,8.33
2018-04-06T09:05:33.353Z,7.67
2018-04-06T09:08:02.076Z,9.60
2018-04-06T09:10:30.845Z,10.93
2018-04-06T09:12:59.610Z,8.17
2018-04-06T09:15:28.489Z,9.50
2018-04-06T09:17:57.306Z,10.57
2018-04-06T09:20:26.747Z,9.63
2018-04-06T09:22:55.793Z,9.83
2018-04-06T09:25:25.340Z,8.97
2018-04-06T09:27:54.323Z,9.70
2018-04-06T09:30:23.236Z,8.50
2018-04-06T09:32:52.029Z,9.47
2018-04-06T09:35:20.776Z,9.10
2018-04-06T09:37:49.673Z,8.70
2018-04-06T09:40:18.655Z,8.07
2018-04-06T09:42:47.567Z,7.87
2018-04-06T09:45:16.411Z,7.93
2018-04-06T09:47:45.581Z,7.27
2018-04-06T09:50:15.313Z,7.60
2018-04-06T09:52:44.124Z,7.33
2018-04-06T09:55:12.874Z,6.90
2018-04-06T09:57:41.712Z,7.93
2018-04-06T10:00:10.543Z,9.67
2018-04-06T10:02:40.387Z,10.27
2018-04-06T10:05:09.952Z,11.60
2018-04-06T10:07:38.738Z,12.03
2018-04-06T10:10:07.521Z,14.03
2018-04-06T10:12:36.326Z,14.70
2018-04-06T10:15:05.515Z,14.23
2018-04-06T10:17:34.360Z,14.30
2018-04-06T10:20:03.100Z,14.90
2018-04-06T10:22:31.944Z,15.77
2018-04-06T10:25:00.924Z,15.63
2018-04-06T10:27:29.632Z,16.07
2018-04-06T10:29:58.454Z,14.80
2018-04-06T10:32:27.212Z,15.10
2018-04-06T10:34:56.194Z,14.33
2018-04-06T10:37:24.936Z,13.27
2018-04-06T10:39:53.878Z,14.17
2018-04-06T10:42:23.073Z,13.63
2018-04-06T10:44:52.076Z,13.13
2018-04-06T10:47:21.102Z,14.20
2018-04-06T10:49:50.650Z,13.40
2018-04-06T10:52:19.479Z,11.83
2018-04-06T10:54:48.325Z,13.40
2018-04-06T10:57:17.380Z,14.60
2018-04-06T10:59:46.200Z,14.20
2018-04-06T11:02:15.176Z,15.43
2018-04-06T11:04:44.720Z,16.50
2018-04-06T11:07:13.558Z,16.80
2018-04-06T11:09:42.344Z,14.93
2018-04-06T11:12:11.850Z,13.97
2018-04-06T11:14:41.435Z,12.97
2018-04-06T11:17:10.393Z,11.60
2018-04-06T11:19:39.200Z,14.13
2018-04-06T11:22:07.904Z,14.73
2018-04-06T11:24:36.857Z,11.70
2018-04-06T11:27:05.640Z,11.80
2018-04-06T11:29:34.454Z,11.57
2018-04-06T11:32:03.673Z,11.67
2018-04-06T11:34:33.524Z,14.13
2018-04-06T11:37:02.597Z,13.10
2018-04-06T11:39:31.376Z,14.57
2018-04-06T11:42:00.220Z,17.63
2018-04-06T11:44:28.984Z,18.63
2018-04-06T11:46:58.969Z,19.57
2018-04-06T11:49:27.923Z,17.90
2018-04-06T11:51:56.727Z,13.90
2018-04-06T11:54:25.548Z,13.30
2018-04-06T11:56:54.338Z,13.97
2018-04-06T11:59:23.125Z,12.40
2018-04-06T12:01:52.305Z,12.17
2018-04-06T12:04:21.307Z,12.10
2018-04-06T12:06:50.718Z,12.10
2018-04-06T12:09:20.288Z,12.67
2018-04-06T12:11:49.084Z,13.13
2018-04-06T12:14:17.823Z,12.67
2018-04-06T12:16:46.662Z,13.27
2018-04-06T12:19:15.557Z,12.97
2018-04-06T12:21:44.377Z,13.60
2018-04-06T12:24:13.483Z,12.90
2018-04-06T12:26:42.513Z,12.97
2018-04-06T12:29:12.300Z,13.47
2018-04-06T12:31:41.232Z,15.13
2018-04-06T12:34:10.864Z,16.27
2018-04-06T12:36:39.656Z,19.03
2018-04-06T12:39:08.784Z,13.97
2018-04-06T12:41:38.289Z,14.43
2018-04-06T12:44:08.043Z,14.07
2018-04-06T12:46:36.768Z,14.87
2018-04-06T12:49:05.571Z,14.87
2018-04-06T12:51:35.254Z,15.87
2018-04-06T12:54:04.070Z,15.80
2018-04-06T12:56:33.150Z,16.70
2018-04-06T12:59:02.744Z,16.00
2018-04-06T13:01:31.580Z,15.97
2018-04-06T13:04:01.225Z,17.57
2018-04-06T13:06:30.664Z,16.63
2018-04-06T13:08:59.464Z,16.87
2018-04-06T13:11:28.252Z,15.40
2018-04-06T13:13:57.800Z,16.23
2018-04-06T13:16:26.814Z,15.80
2018-04-06T13:18:55.629Z,16.57
2018-04-06T13:21:26.190Z,16.07
2018-04-06T13:23:56.284Z,16.57
2018-04-06T13:26:26.125Z,17.00
2018-04-06T13:28:55.718Z,17.03
2018-04-06T13:31:25.235Z,17.83
2018-04-06T13:33:53.994Z,18.83
2018-04-06T13:36:25.899Z,19.20
2018-04-06T13:38:54.740Z,19.07
2018-04-06T13:41:24.570Z,20.17
2018-04-06T13:43:53.601Z,20.37
2018-04-06T13:46:22.470Z,22.50
2018-04-06T13:48:52.240Z,22.00
2018-04-06T13:51:20.989Z,20.23
2018-04-06T13:53:49.898Z,19.20
2018-04-06T13:56:18.714Z,18.50
2018-04-06T13:58:47.692Z,19.27
2018-04-06T14:01:16.601Z,18.50
2018-04-06T14:03:45.379Z,18.57
2018-04-06T14:06:14.900Z,19.47
2018-04-06T14:08:44.461Z,21.30
2018-04-06T14:11:13.278Z,22.77
2018-04-06T14:13:42.024Z,22.27
2018-04-06T14:16:10.862Z,18.47
2018-04-06T14:18:40.376Z,18.10
2018-04-06T14:21:09.285Z,20.70
2018-04-06T14:23:38.539Z,20.70
2018-04-06T14:26:07.717Z,18.73
2018-04-06T14:28:36.516Z,25.30
2018-04-06T14:31:05.292Z,23.10
2018-04-06T14:33:34.100Z,14.70
2018-04-06T14:36:02.826Z,15.83
2018-04-06T14:38:31.555Z,15.13
2018-04-06T14:41:00.395Z,13.87
2018-04-06T14:43:29.208Z,14.20
2018-04-06T14:45:58.072Z,14.27
2018-04-06T14:48:27.096Z,14.60
2018-04-06T14:50:55.928Z,13.83
2018-04-06T14:53:25.952Z,13.20
2018-04-06T14:55:54.688Z,11.93
2018-04-06T14:58:23.971Z,12.83
2018-04-06T15:00:53.395Z,12.37
2018-04-06T15:03:22.091Z,11.63
2018-04-06T15:05:51.282Z,10.87
2018-04-06T15:08:20.062Z,11.03
2018-04-06T15:10:48.936Z,11.60
2018-04-06T15:13:18.700Z,10.97
2018-04-06T15:15:47.892Z,11.17
2018-04-06T15:18:16.675Z,10.30
2018-04-06T15:20:45.397Z,9.27
2018-04-06T15:23:14.478Z,11.63
2018-04-06T15:25:43.251Z,11.07
2018-04-06T15:28:18.134Z,10.33
2018-04-06T15:30:48.216Z,10.70
2018-04-06T15:33:17.843Z,10.37
2018-04-06T15:35:46.919Z,9.87
2018-04-06T15:38:15.811Z,9.97
2018-04-06T15:40:44.620Z,10.77
2018-04-06T15:43:13.387Z,10.83
2018-04-06T15:45:42.460Z,10.43
2018-04-06T15:48:11.298Z,10.67
2018-04-06T15:50:40.205Z,10.83
2018-04-06T15:53:09.120Z,10.80
2018-04-06T15:55:37.870Z,12.03
2018-04-06T15:58:06.752Z,11.80
2018-04-06T16:00:35.641Z,11.63
2018-04-06T16:03:04.864Z,13.63
2018-04-06T16:05:33.765Z,16.07
2018-04-06T16:08:02.928Z,16.30
2018-04-06T16:10:32.476Z,16.10
2018-04-06T16:13:01.350Z,16.63
2018-04-06T16:15:30.360Z,15.90
2018-04-06T16:17:59.195Z,16.43
2018-04-06T16:20:27.971Z,16.37
2018-04-06T16:22:57.513Z,16.33
2018-04-06T16:25:26.246Z,16.70
2018-04-06T16:27:55.011Z,19.23
2018-04-06T16:30:24.732Z,17.63
2018-04-06T16:32:53.528Z,17.17
2018-04-06T16:35:22.491Z,15.50
2018-04-06T16:37:52.139Z,15.10
2018-04-06T16:40:20.915Z,16.03
2018-04-06T16:42:49.857Z,16.30
2018-04-06T16:45:19.482Z,15.13
2018-04-06T16:47:48.978Z,16.43
2018-04-06T16:50:18.555Z,16.47
2018-04-06T16:52:47.406Z,18.93
2018-04-06T16:55:16.213Z,18.13
2018-04-06T16:57:45.050Z,19.00
2018-04-06T17:00:14.657Z,19.63
2018-04-06T17:02:44.677Z,23.53
2018-04-06T17:05:14.270Z,22.20
2018-04-06T17:07:44.607Z,19.37
2018-04-06T17:10:13.645Z,17.47
2018-04-06T17:12:42.830Z,19.27
2018-04-06T17:15:11.590Z,18.87
2018-04-06T17:17:40.347Z,18.20
2018-04-06T17:20:09.191Z,18.10
2018-04-06T17:22:37.958Z,19.47
2018-04-06T17:25:06.746Z,19.60
2018-04-06T17:27:36.481Z,18.87
2018-04-06T17:30:05.895Z,20.07
2018-04-06T17:32:34.921Z,19.90
2018-04-06T17:35:04.512Z,20.40
2018-04-06T17:37:34.795Z,20.60
2018-04-06T17:40:04.522Z,19.33
2018-04-06T17:42:34.426Z,20.97
2018-04-06T17:45:04.274Z,21.60
2018-04-06T17:47:33.795Z,20.17
2018-04-06T17:50:04.310Z,19.83
2018-04-06T17:52:33.910Z,18.73
2018-04-06T17:55:03.054Z,19.10
2018-04-06T17:57:33.755Z,18.67
2018-04-06T18:00:03.446Z,17.93
2018-04-06T18:02:32.546Z,19.37
2018-04-06T18:05:01.596Z,18.93
2018-04-06T18:07:31.032Z,17.87
2018-04-06T18:10:00.822Z,17.93
2018-04-06T18:12:30.224Z,18.53
2018-04-06T18:15:00.107Z,20.33
2018-04-06T18:17:30.046Z,21.17
2018-04-06T18:19:59.468Z,22.07
2018-04-06T18:22:28.492Z,24.90
2018-04-06T18:24:58.516Z,25.43
2018-04-06T18:27:29.610Z,25.37
2018-04-06T18:30:01.625Z,26.10
2018-04-06T18:32:31.609Z,24.90
2018-04-06T18:35:01.459Z,23.93
2018-04-06T18:37:31.221Z,25.90
2018-04-06T18:40:01.207Z,24.77
2018-04-06T18:42:31.478Z,22.70
2018-04-06T18:45:02.659Z,24.67
2018-04-06T18:47:32.428Z,26.93
2018-04-06T18:50:03.272Z,23.17
2018-04-06T18:52:33.308Z,21.80
2018-04-06T18:55:04.058Z,23.70
2018-04-06T18:57:34.026Z,20.80
2018-04-06T19:00:04.664Z,20.37
2018-04-06T19:02:34.683Z,19.43
2018-04-06T19:18:05.156Z,22.17
2018-04-06T19:20:35.010Z,19.77
2018-04-06T19:23:05.362Z,20.17
2018-04-06T19:25:35.237Z,21.20
2018-04-06T19:28:06.186Z,22.00
2018-04-06T19:30:36.343Z,22.77
2018-04-06T19:33:06.508Z,22.67
2018-04-06T19:35:36.531Z,23.50
2018-04-06T19:38:07.464Z,24.33
2018-04-06T19:40:37.146Z,22.97
2018-04-06T19:43:06.857Z,23.00
2018-04-06T19:45:36.565Z,23.93
2018-04-06T19:48:07.352Z,24.90
2018-04-06T19:50:42.880Z,25.80
2018-04-06T19:53:13.447Z,25.20
2018-04-06T19:55:43.905Z,25.93
2018-04-06T19:58:14.512Z,25.07
2018-04-06T20:00:43.794Z,25.67
2018-04-06T20:03:13.956Z,25.97
2018-04-06T20:05:44.067Z,26.00
2018-04-06T20:08:13.256Z,27.13
2018-04-06T20:10:42.452Z,27.93
2018-04-06T20:13:12.758Z,27.37
2018-04-06T20:15:42.219Z,27.13
2018-04-06T20:18:11.899Z,29.10
2018-04-06T20:20:40.759Z,28.63
2018-04-06T20:23:09.568Z,29.17
2018-04-06T20:25:38.368Z,29.07
2018-04-06T20:28:07.273Z,30.63
2018-04-06T20:30:36.915Z,29.80
2018-04-06T20:33:05.621Z,29.80
2018-04-06T20:35:34.702Z,29.20
2018-04-06T20:38:03.639Z,28.73
2018-04-06T20:40:32.521Z,28.83
2018-04-06T20:43:01.409Z,28.97
2018-04-06T20:45:30.160Z,28.43
2018-04-06T20:48:01.650Z,28.60
2018-04-06T20:50:32.268Z,29.97
2018-04-06T20:53:10.948Z,29.60
2018-04-06T20:55:46.585Z,30.30
2018-04-06T20:58:20.872Z,29.77
2018-04-06T21:00:53.637Z,31.00
2018-04-06T21:03:28.930Z,30.00
2018-04-06T21:06:01.591Z,31.57
2018-04-06T21:08:32.248Z,33.27
2018-04-06T21:11:03.210Z,33.10
2018-04-06T21:13:36.853Z,32.60
2018-04-06T21:16:12.935Z,34.03
2018-04-06T21:18:45.073Z,34.47
2018-04-06T21:21:15.259Z,35.13
2018-04-06T21:23:43.942Z,36.60
2018-04-06T21:26:12.892Z,36.70
2018-04-06T21:28:41.776Z,38.73
2018-04-06T21:31:11.292Z,36.97
2018-04-06T21:33:40.826Z,41.33
2018-04-06T21:36:09.698Z,40.93
2018-04-06T21:38:38.504Z,42.30
2018-04-06T21:41:07.246Z,42.87
2018-04-06T21:43:36.657Z,42.80
2018-04-06T21:46:05.714Z,43.77
2018-04-06T21:48:34.487Z,44.53
2018-04-06T21:51:03.360Z,44.03
2018-04-06T21:53:32.199Z,43.70
2018-04-06T21:56:01.105Z,45.57
2018-04-06T21:58:29.999Z,46.43
2018-04-06T22:00:59.548Z,46.73
2018-04-06T22:03:29.512Z,44.27
2018-04-06T22:05:58.403Z,46.27
2018-04-06T22:08:27.199Z,45.27
2018-04-06T22:10:56.198Z,44.47
2018-04-06T22:13:25.167Z,44.07
2018-04-06T22:15:53.938Z,44.60
2018-04-06T22:18:22.860Z,45.70
2018-04-06T22:20:51.601Z,46.77
2018-04-06T22:23:20.477Z,44.83
2018-04-06T22:25:49.234Z,44.50
2018-04-06T22:28:18.828Z,44.00
2018-04-06T22:30:47.615Z,44.07
2018-04-06T22:33:16.418Z,44.10
2018-04-06T22:35:45.273Z,45.50
2018-04-06T22:38:14.865Z,44.97
2018-04-06T22:40:43.974Z,45.83
2018-04-06T22:43:13.014Z,45.57
2018-04-06T22:45:42.676Z,45.37
2018-04-06T22:48:11.483Z,46.43
2018-04-06T22:50:40.255Z,48.63
2018-04-06T22:53:09.067Z,48.23
2018-04-06T22:55:37.994Z,47.63
2018-04-06T22:58:06.957Z,46.40
2018-04-06T23:00:35.915Z,44.80
2018-04-06T23:03:04.756Z,44.13
2018-04-06T23:05:33.904Z,45.47
2018-04-06T23:08:02.732Z,44.97
2018-04-06T23:10:31.478Z,43.97
2018-04-06T23:13:00.343Z,43.67
2018-04-06T23:15:29.183Z,43.30
2018-04-06T23:17:58.692Z,43.27
2018-04-06T23:20:27.647Z,42.77
2018-04-06T23:22:56.376Z,43.27
2018-04-06T23:25:25.264Z,42.93
2018-04-06T23:27:54.014Z,44.67
2018-04-06T23:30:22.840Z,43.83
2018-04-06T23:32:51.675Z,42.53
2018-04-06T23:35:20.457Z,43.33
2018-04-06T23:37:49.247Z,44.03
2018-04-06T23:40:18.089Z,42.57
2018-04-06T23:42:47.265Z,43.23
2018-04-06T23:45:16.058Z,42.20
2018-04-06T23:47:44.971Z,41.50
2018-04-06T23:50:13.954Z,41.00
2018-04-06T23:52:43.040Z,39.67
2018-04-06T23:55:13.382Z,40.10
2018-04-06T23:57:42.965Z,39.77
